ENKB

Kristiansund/Kvernberget

Airport
ICAO code
ENKB
Summary
ICAO Region
EUR
ICAO Territory
Location

Kristiansund, Norway,

Elevation
204 ft
Coordinates
63° 6' 42" N , 7° 49' 28" E
KCC
Metar
Observation
ENKB 272050Z 21013G24KT 170V250 9999 -DZ BKN024 06/01 Q1010 RMK WIND 745FT 21030G46KT
Station
Kristiansund / Kvernberget
Date/Time
2023-01-27 20:50:00
Wind direction
210°
Wind speed
13 kts
Lowest cloud amount
broken clouds
Temperature
6°C
Dew point
1°C
Humidity
70%
QNH
1010 hPa
Weather condition
light drizzle

Description

Airport serving the communities around Kristiansand, Norway.

Climatology

Temperate Marine climate/Oceanic climate (Köppen climate classification Cfb). Moderately cool summer and comparatively warm winter with a temperature range of only 14°C. Prevailing south-westerly winds from the Atlantic Ocean.

Runways

Designator Length Width Surface Rops
7/25 1840 45 ASP Yes/Yes

Airport map

Aerial View

SKYbrary Partners:

Safety knowledge contributed by: